sensor_id;sensor_type;location;lat;lon;timestamp;P1;durP1;ratioP1;P2;durP2;ratioP2
68247;SDS011;55064;49.636;12.164;2023-03-01T00:01:41;20.93;;;7.27;;
68247;SDS011;55064;49.636;12.164;2023-03-01T00:04:06;22.20;;;7.95;;
68247;SDS011;55064;49.636;12.164;2023-03-01T00:06:34;24.13;;;8.07;;
68247;SDS011;55064;49.636;12.164;2023-03-01T00:09:00;24.05;;;8.27;;
68247;SDS011;55064;49.636;12.164;2023-03-01T00:11:26;20.63;;;7.47;;
68247;SDS011;55064;49.636;12.164;2023-03-01T00:13:55;22.02;;;7.47;;
68247;SDS011;55064;49.636;12.164;2023-03-01T00:16:33;21.03;;;7.57;;
68247;SDS011;55064;49.636;12.164;2023-03-01T00:19:00;20.42;;;8.18;;
68247;SDS011;55064;49.636;12.164;2023-03-01T00:21:26;23.33;;;8.35;;
68247;SDS011;55064;49.636;12.164;2023-03-01T00:23:52;21.58;;;7.72;;
68247;SDS011;55064;49.636;12.164;2023-03-01T00:26:21;20.37;;;7.87;;
68247;SDS011;55064;49.636;12.164;2023-03-01T00:28:47;22.40;;;7.55;;
68247;SDS011;55064;49.636;12.164;2023-03-01T00:31:17;22.83;;;7.83;;
68247;SDS011;55064;49.636;12.164;2023-03-01T00:33:45;20.92;;;7.55;;
68247;SDS011;55064;49.636;12.164;2023-03-01T00:36:14;22.35;;;7.63;;
68247;SDS011;55064;49.636;12.164;2023-03-01T00:38:42;20.00;;;7.43;;
68247;SDS011;55064;49.636;12.164;2023-03-01T00:41:18;18.45;;;7.07;;
68247;SDS011;55064;49.636;12.164;2023-03-01T00:43:46;18.60;;;6.47;;
68247;SDS011;55064;49.636;12.164;2023-03-01T00:46:13;19.50;;;7.45;;
68247;SDS011;55064;49.636;12.164;2023-03-01T00:48:42;21.55;;;7.32;;
68247;SDS011;55064;49.636;12.164;2023-03-01T00:51:09;22.23;;;7.88;;
68247;SDS011;55064;49.636;12.164;2023-03-01T00:53:39;18.75;;;7.28;;
68247;SDS011;55064;49.636;12.164;2023-03-01T00:56:08;17.80;;;6.80;;
68247;SDS011;55064;49.636;12.164;2023-03-01T00:58:35;21.02;;;7.40;;
68247;SDS011;55064;49.636;12.164;2023-03-01T01:01:00;18.90;;;7.27;;
68247;SDS011;55064;49.636;12.164;2023-03-01T01:03:52;21.75;;;7.28;;
68247;SDS011;55064;49.636;12.164;2023-03-01T01:06:20;20.15;;;7.35;;
68247;SDS011;55064;49.636;12.164;2023-03-01T01:08:46;21.38;;;7.50;;
68247;SDS011;55064;49.636;12.164;2023-03-01T01:11:13;20.70;;;6.93;;
68247;SDS011;55064;49.636;12.164;2023-03-01T01:13:39;19.20;;;7.20;;
68247;SDS011;55064;49.636;12.164;2023-03-01T01:16:05;17.48;;;6.85;;
68247;SDS011;55064;49.636;12.164;2023-03-01T01:18:31;22.38;;;7.68;;
68247;SDS011;55064;49.636;12.164;2023-03-01T01:20:56;21.90;;;7.57;;
68247;SDS011;55064;49.636;12.164;2023-03-01T01:23:23;19.27;;;7.33;;
68247;SDS011;55064;49.636;12.164;2023-03-01T01:25:48;20.77;;;7.72;;
68247;SDS011;55064;49.636;12.164;2023-03-01T01:28:13;21.10;;;7.20;;
68247;SDS011;55064;49.636;12.164;2023-03-01T01:30:40;20.70;;;7.23;;
68247;SDS011;55064;49.636;12.164;2023-03-01T01:33:09;20.92;;;7.35;;
68247;SDS011;55064;49.636;12.164;2023-03-01T01:35:34;22.55;;;7.80;;
68247;SDS011;55064;49.636;12.164;2023-03-01T01:38:02;19.60;;;7.63;;
68247;SDS011;55064;49.636;12.164;2023-03-01T01:40:28;23.60;;;7.50;;
68247;SDS011;55064;49.636;12.164;2023-03-01T01:42:54;19.55;;;7.40;;
68247;SDS011;55064;49.636;12.164;2023-03-01T01:48:00;22.63;;;8.05;;
68247;SDS011;55064;49.636;12.164;2023-03-01T01:50:32;21.38;;;8.43;;
68247;SDS011;55064;49.636;12.164;2023-03-01T01:53:10;20.40;;;7.77;;
68247;SDS011;55064;49.636;12.164;2023-03-01T01:55:43;18.60;;;7.10;;
68247;SDS011;55064;49.636;12.164;2023-03-01T01:58:13;18.67;;;7.43;;
68247;SDS011;55064;49.636;12.164;2023-03-01T02:00:44;20.23;;;7.25;;
68247;SDS011;55064;49.636;12.164;2023-03-01T02:03:11;23.75;;;8.00;;
68247;SDS011;55064;49.636;12.164;2023-03-01T02:08:30;18.10;;;6.88;;
68247;SDS011;55064;49.636;12.164;2023-03-01T02:10:58;20.48;;;7.25;;
68247;SDS011;55064;49.636;12.164;2023-03-01T02:13:25;19.65;;;7.38;;
68247;SDS011;55064;49.636;12.164;2023-03-01T02:15:54;21.85;;;8.15;;
68247;SDS011;55064;49.636;12.164;2023-03-01T02:18:20;20.13;;;7.40;;
68247;SDS011;55064;49.636;12.164;2023-03-01T02:23:23;19.13;;;7.13;;
68247;SDS011;55064;49.636;12.164;2023-03-01T02:28:53;21.42;;;6.85;;
68247;SDS011;55064;49.636;12.164;2023-03-01T02:31:19;20.87;;;6.63;;
68247;SDS011;55064;49.636;12.164;2023-03-01T02:34:06;21.23;;;7.22;;
68247;SDS011;55064;49.636;12.164;2023-03-01T02:36:37;19.85;;;7.65;;
68247;SDS011;55064;49.636;12.164;2023-03-01T02:39:07;23.03;;;7.67;;
68247;SDS011;55064;49.636;12.164;2023-03-01T02:41:42;22.30;;;7.57;;
68247;SDS011;55064;49.636;12.164;2023-03-01T02:44:12;18.20;;;6.78;;
68247;SDS011;55064;49.636;12.164;2023-03-01T02:46:45;18.65;;;6.40;;
68247;SDS011;55064;49.636;12.164;2023-03-01T02:49:29;18.80;;;7.50;;
68247;SDS011;55064;49.636;12.164;2023-03-01T02:54:54;22.33;;;7.65;;
68247;SDS011;55064;49.636;12.164;2023-03-01T02:57:30;24.55;;;8.07;;
68247;SDS011;55064;49.636;12.164;2023-03-01T03:00:00;18.67;;;6.85;;
68247;SDS011;55064;49.636;12.164;2023-03-01T03:02:32;23.33;;;8.52;;
68247;SDS011;55064;49.636;12.164;2023-03-01T03:07:38;19.23;;;7.72;;
68247;SDS011;55064;49.636;12.164;2023-03-01T03:10:08;19.85;;;7.15;;
68247;SDS011;55064;49.636;12.164;2023-03-01T03:12:36;22.58;;;8.15;;
68247;SDS011;55064;49.636;12.164;2023-03-01T03:15:05;22.30;;;7.97;;
68247;SDS011;55064;49.636;12.164;2023-03-01T03:17:36;19.33;;;7.63;;
68247;SDS011;55064;49.636;12.164;2023-03-01T03:20:05;24.25;;;8.48;;
68247;SDS011;55064;49.636;12.164;2023-03-01T03:22:35;19.88;;;7.20;;
68247;SDS011;55064;49.636;12.164;2023-03-01T03:25:04;20.48;;;7.50;;
68247;SDS011;55064;49.636;12.164;2023-03-01T03:27:31;23.67;;;8.52;;
68247;SDS011;55064;49.636;12.164;2023-03-01T03:29:56;20.17;;;7.83;;
68247;SDS011;55064;49.636;12.164;2023-03-01T03:32:22;22.70;;;8.63;;
68247;SDS011;55064;49.636;12.164;2023-03-01T03:34:47;21.07;;;7.63;;
68247;SDS011;55064;49.636;12.164;2023-03-01T03:37:14;26.48;;;8.70;;
68247;SDS011;55064;49.636;12.164;2023-03-01T03:39:59;22.95;;;8.63;;
68247;SDS011;55064;49.636;12.164;2023-03-01T03:42:25;23.73;;;8.27;;
68247;SDS011;55064;49.636;12.164;2023-03-01T03:44:51;22.47;;;8.43;;
68247;SDS011;55064;49.636;12.164;2023-03-01T03:47:19;20.45;;;7.30;;
68247;SDS011;55064;49.636;12.164;2023-03-01T03:49:45;19.07;;;7.63;;
68247;SDS011;55064;49.636;12.164;2023-03-01T03:52:11;22.30;;;8.23;;
68247;SDS011;55064;49.636;12.164;2023-03-01T03:54:39;20.05;;;7.70;;
68247;SDS011;55064;49.636;12.164;2023-03-01T03:57:09;21.70;;;7.93;;
68247;SDS011;55064;49.636;12.164;2023-03-01T03:59:34;22.07;;;7.80;;
68247;SDS011;55064;49.636;12.164;2023-03-01T04:02:02;23.40;;;8.13;;
68247;SDS011;55064;49.636;12.164;2023-03-01T04:04:27;23.55;;;8.70;;
68247;SDS011;55064;49.636;12.164;2023-03-01T04:06:53;24.30;;;9.07;;
68247;SDS011;55064;49.636;12.164;2023-03-01T04:09:18;24.87;;;8.63;;
68247;SDS011;55064;49.636;12.164;2023-03-01T04:11:43;25.35;;;8.20;;
68247;SDS011;55064;49.636;12.164;2023-03-01T04:14:09;23.67;;;8.10;;
68247;SDS011;55064;49.636;12.164;2023-03-01T04:16:34;21.57;;;8.00;;
68247;SDS011;55064;49.636;12.164;2023-03-01T04:19:01;22.52;;;8.13;;
68247;SDS011;55064;49.636;12.164;2023-03-01T04:21:26;19.40;;;7.10;;
68247;SDS011;55064;49.636;12.164;2023-03-01T04:23:52;19.50;;;7.25;;
68247;SDS011;55064;49.636;12.164;2023-03-01T04:26:18;22.37;;;8.50;;
68247;SDS011;55064;49.636;12.164;2023-03-01T04:28:45;23.45;;;8.07;;
68247;SDS011;55064;49.636;12.164;2023-03-01T04:31:15;23.35;;;7.70;;
68247;SDS011;55064;49.636;12.164;2023-03-01T04:33:44;23.30;;;8.50;;
68247;SDS011;55064;49.636;12.164;2023-03-01T04:36:11;19.30;;;6.85;;
68247;SDS011;55064;49.636;12.164;2023-03-01T04:38:39;21.77;;;7.90;;
68247;SDS011;55064;49.636;12.164;2023-03-01T04:41:05;23.98;;;8.70;;
68247;SDS011;55064;49.636;12.164;2023-03-01T04:43:33;19.48;;;7.45;;
68247;SDS011;55064;49.636;12.164;2023-03-01T04:46:06;21.23;;;8.10;;
68247;SDS011;55064;49.636;12.164;2023-03-01T04:48:40;25.27;;;8.07;;
68247;SDS011;55064;49.636;12.164;2023-03-01T04:51:07;19.90;;;7.50;;
68247;SDS011;55064;49.636;12.164;2023-03-01T04:53:34;19.63;;;6.93;;
68247;SDS011;55064;49.636;12.164;2023-03-01T04:56:01;21.02;;;8.07;;
68247;SDS011;55064;49.636;12.164;2023-03-01T04:58:36;23.33;;;7.72;;
68247;SDS011;55064;49.636;12.164;2023-03-01T05:01:10;19.30;;;7.30;;
68247;SDS011;55064;49.636;12.164;2023-03-01T05:03:49;23.07;;;8.10;;
68247;SDS011;55064;49.636;12.164;2023-03-01T05:06:17;22.10;;;7.70;;
68247;SDS011;55064;49.636;12.164;2023-03-01T05:08:44;17.75;;;6.65;;
68247;SDS011;55064;49.636;12.164;2023-03-01T05:11:11;21.60;;;7.97;;
68247;SDS011;55064;49.636;12.164;2023-03-01T05:13:37;21.70;;;7.63;;
68247;SDS011;55064;49.636;12.164;2023-03-01T05:16:06;20.85;;;7.80;;
68247;SDS011;55064;49.636;12.164;2023-03-01T05:18:36;22.60;;;8.13;;
68247;SDS011;55064;49.636;12.164;2023-03-01T05:21:03;20.50;;;7.05;;
68247;SDS011;55064;49.636;12.164;2023-03-01T05:23:33;22.80;;;8.37;;
68247;SDS011;55064;49.636;12.164;2023-03-01T05:26:00;23.17;;;8.95;;
68247;SDS011;55064;49.636;12.164;2023-03-01T05:28:29;23.65;;;9.07;;
68247;SDS011;55064;49.636;12.164;2023-03-01T05:30:57;25.25;;;8.48;;
68247;SDS011;55064;49.636;12.164;2023-03-01T05:33:25;26.27;;;9.02;;
68247;SDS011;55064;49.636;12.164;2023-03-01T05:35:52;21.83;;;7.93;;
68247;SDS011;55064;49.636;12.164;2023-03-01T05:38:22;26.00;;;8.73;;
68247;SDS011;55064;49.636;12.164;2023-03-01T05:40:52;27.48;;;8.98;;
68247;SDS011;55064;49.636;12.164;2023-03-01T05:43:20;28.25;;;9.77;;
68247;SDS011;55064;49.636;12.164;2023-03-01T05:45:45;26.87;;;9.97;;
68247;SDS011;55064;49.636;12.164;2023-03-01T05:48:11;26.23;;;10.83;;
68247;SDS011;55064;49.636;12.164;2023-03-01T05:50:43;27.55;;;10.80;;
68247;SDS011;55064;49.636;12.164;2023-03-01T05:53:15;29.88;;;11.30;;
68247;SDS011;55064;49.636;12.164;2023-03-01T05:55:47;30.77;;;10.70;;
68247;SDS011;55064;49.636;12.164;2023-03-01T05:58:15;31.98;;;12.68;;
68247;SDS011;55064;49.636;12.164;2023-03-01T06:00:43;28.97;;;10.80;;
68247;SDS011;55064;49.636;12.164;2023-03-01T06:03:11;28.63;;;11.73;;
68247;SDS011;55064;49.636;12.164;2023-03-01T06:05:38;32.55;;;11.75;;
68247;SDS011;55064;49.636;12.164;2023-03-01T06:08:07;31.08;;;10.75;;
68247;SDS011;55064;49.636;12.164;2023-03-01T06:10:34;32.08;;;11.45;;
68247;SDS011;55064;49.636;12.164;2023-03-01T06:13:02;25.07;;;9.50;;
68247;SDS011;55064;49.636;12.164;2023-03-01T06:15:30;25.50;;;9.73;;
68247;SDS011;55064;49.636;12.164;2023-03-01T06:17:55;22.67;;;9.53;;
68247;SDS011;55064;49.636;12.164;2023-03-01T06:20:30;26.88;;;9.07;;
68247;SDS011;55064;49.636;12.164;2023-03-01T06:22:57;33.75;;;14.15;;
68247;SDS011;55064;49.636;12.164;2023-03-01T06:25:24;32.97;;;12.50;;
68247;SDS011;55064;49.636;12.164;2023-03-01T06:27:50;32.13;;;11.90;;
68247;SDS011;55064;49.636;12.164;2023-03-01T06:30:18;28.65;;;11.57;;
68247;SDS011;55064;49.636;12.164;2023-03-01T06:32:47;33.60;;;11.57;;
68247;SDS011;55064;49.636;12.164;2023-03-01T06:35:14;33.40;;;11.90;;
68247;SDS011;55064;49.636;12.164;2023-03-01T06:37:44;32.67;;;11.20;;
68247;SDS011;55064;49.636;12.164;2023-03-01T06:40:10;31.58;;;11.52;;
68247;SDS011;55064;49.636;12.164;2023-03-01T06:42:38;34.55;;;11.80;;
68247;SDS011;55064;49.636;12.164;2023-03-01T06:45:08;28.10;;;10.68;;
68247;SDS011;55064;49.636;12.164;2023-03-01T06:47:34;27.30;;;10.93;;
68247;SDS011;55064;49.636;12.164;2023-03-01T06:50:00;33.27;;;13.27;;
68247;SDS011;55064;49.636;12.164;2023-03-01T06:52:29;28.02;;;11.93;;
68247;SDS011;55064;49.636;12.164;2023-03-01T06:54:57;25.33;;;10.50;;
68247;SDS011;55064;49.636;12.164;2023-03-01T06:57:25;26.75;;;10.13;;
68247;SDS011;55064;49.636;12.164;2023-03-01T06:59:54;28.73;;;11.95;;
68247;SDS011;55064;49.636;12.164;2023-03-01T07:02:20;30.27;;;11.63;;
68247;SDS011;55064;49.636;12.164;2023-03-01T07:04:50;28.00;;;10.90;;
68247;SDS011;55064;49.636;12.164;2023-03-01T07:07:19;32.53;;;10.48;;
68247;SDS011;55064;49.636;12.164;2023-03-01T07:09:45;83.93;;;28.47;;
68247;SDS011;55064;49.636;12.164;2023-03-01T07:12:11;39.00;;;14.77;;
68247;SDS011;55064;49.636;12.164;2023-03-01T07:14:43;33.10;;;12.30;;
68247;SDS011;55064;49.636;12.164;2023-03-01T07:17:13;33.30;;;10.67;;
68247;SDS011;55064;49.636;12.164;2023-03-01T07:19:38;29.35;;;10.48;;
68247;SDS011;55064;49.636;12.164;2023-03-01T07:22:13;29.17;;;10.45;;
68247;SDS011;55064;49.636;12.164;2023-03-01T07:24:38;27.57;;;9.73;;
68247;SDS011;55064;49.636;12.164;2023-03-01T07:27:09;25.42;;;10.50;;
68247;SDS011;55064;49.636;12.164;2023-03-01T07:29:35;30.73;;;11.02;;
68247;SDS011;55064;49.636;12.164;2023-03-01T07:32:04;27.35;;;10.73;;
68247;SDS011;55064;49.636;12.164;2023-03-01T07:34:30;26.97;;;10.23;;
68247;SDS011;55064;49.636;12.164;2023-03-01T07:36:58;25.10;;;10.27;;
68247;SDS011;55064;49.636;12.164;2023-03-01T07:39:23;31.02;;;10.82;;
68247;SDS011;55064;49.636;12.164;2023-03-01T07:41:49;26.97;;;10.13;;
68247;SDS011;55064;49.636;12.164;2023-03-01T07:44:15;25.65;;;9.88;;
68247;SDS011;55064;49.636;12.164;2023-03-01T07:46:41;28.00;;;11.00;;
68247;SDS011;55064;49.636;12.164;2023-03-01T07:49:09;28.95;;;11.70;;
68247;SDS011;55064;49.636;12.164;2023-03-01T07:51:34;27.13;;;10.77;;
68247;SDS011;55064;49.636;12.164;2023-03-01T07:54:01;24.53;;;8.67;;
68247;SDS011;55064;49.636;12.164;2023-03-01T07:56:30;31.50;;;11.48;;
68247;SDS011;55064;49.636;12.164;2023-03-01T07:58:58;27.00;;;10.63;;
68247;SDS011;55064;49.636;12.164;2023-03-01T08:01:24;31.43;;;11.40;;
68247;SDS011;55064;49.636;12.164;2023-03-01T08:03:50;27.92;;;11.80;;
68247;SDS011;55064;49.636;12.164;2023-03-01T08:06:16;24.83;;;10.57;;
68247;SDS011;55064;49.636;12.164;2023-03-01T08:08:42;30.10;;;9.98;;
68247;SDS011;55064;49.636;12.164;2023-03-01T08:11:10;29.10;;;10.05;;
68247;SDS011;55064;49.636;12.164;2023-03-01T08:13:38;25.83;;;10.27;;
68247;SDS011;55064;49.636;12.164;2023-03-01T08:16:10;30.13;;;12.57;;
68247;SDS011;55064;49.636;12.164;2023-03-01T08:18:41;25.25;;;8.43;;
68247;SDS011;55064;49.636;12.164;2023-03-01T08:21:08;21.58;;;9.27;;
68247;SDS011;55064;49.636;12.164;2023-03-01T08:23:41;31.48;;;10.40;;
68247;SDS011;55064;49.636;12.164;2023-03-01T08:26:08;28.88;;;11.07;;
68247;SDS011;55064;49.636;12.164;2023-03-01T08:28:41;24.10;;;9.67;;
68247;SDS011;55064;49.636;12.164;2023-03-01T08:31:19;28.08;;;10.50;;
68247;SDS011;55064;49.636;12.164;2023-03-01T08:33:48;20.00;;;8.32;;
68247;SDS011;55064;49.636;12.164;2023-03-01T08:36:20;25.63;;;10.00;;
68247;SDS011;55064;49.636;12.164;2023-03-01T08:38:50;25.03;;;10.03;;
68247;SDS011;55064;49.636;12.164;2023-03-01T08:41:17;23.58;;;9.10;;
68247;SDS011;55064;49.636;12.164;2023-03-01T08:43:43;20.60;;;8.80;;
68247;SDS011;55064;49.636;12.164;2023-03-01T08:46:08;27.73;;;10.47;;
68247;SDS011;55064;49.636;12.164;2023-03-01T08:48:34;27.47;;;9.50;;
68247;SDS011;55064;49.636;12.164;2023-03-01T08:51:14;24.48;;;10.82;;
68247;SDS011;55064;49.636;12.164;2023-03-01T08:53:41;23.33;;;8.63;;
68247;SDS011;55064;49.636;12.164;2023-03-01T08:56:08;29.95;;;11.23;;
68247;SDS011;55064;49.636;12.164;2023-03-01T08:58:34;22.05;;;9.43;;
68247;SDS011;55064;49.636;12.164;2023-03-01T09:01:01;23.77;;;10.37;;
68247;SDS011;55064;49.636;12.164;2023-03-01T09:03:39;28.27;;;11.88;;
68247;SDS011;55064;49.636;12.164;2023-03-01T09:06:07;25.73;;;10.88;;
68247;SDS011;55064;49.636;12.164;2023-03-01T09:08:40;22.30;;;9.10;;
68247;SDS011;55064;49.636;12.164;2023-03-01T09:11:12;22.93;;;8.80;;
68247;SDS011;55064;49.636;12.164;2023-03-01T09:13:40;25.42;;;10.23;;
68247;SDS011;55064;49.636;12.164;2023-03-01T09:16:07;27.30;;;10.70;;
68247;SDS011;55064;49.636;12.164;2023-03-01T09:18:34;24.37;;;9.80;;
68247;SDS011;55064;49.636;12.164;2023-03-01T09:21:10;22.83;;;9.35;;
68247;SDS011;55064;49.636;12.164;2023-03-01T09:23:42;25.52;;;10.85;;
68247;SDS011;55064;49.636;12.164;2023-03-01T09:26:11;32.20;;;15.13;;
68247;SDS011;55064;49.636;12.164;2023-03-01T09:28:38;27.80;;;11.70;;
68247;SDS011;55064;49.636;12.164;2023-03-01T09:31:05;29.53;;;11.40;;
68247;SDS011;55064;49.636;12.164;2023-03-01T09:33:31;26.73;;;10.10;;
68247;SDS011;55064;49.636;12.164;2023-03-01T09:35:58;23.67;;;9.40;;
68247;SDS011;55064;49.636;12.164;2023-03-01T09:38:26;25.40;;;10.43;;
68247;SDS011;55064;49.636;12.164;2023-03-01T09:40:54;25.63;;;10.25;;
68247;SDS011;55064;49.636;12.164;2023-03-01T09:46:12;26.50;;;10.60;;
68247;SDS011;55064;49.636;12.164;2023-03-01T09:49:03;20.23;;;8.87;;
68247;SDS011;55064;49.636;12.164;2023-03-01T09:51:31;22.67;;;9.27;;
68247;SDS011;55064;49.636;12.164;2023-03-01T09:53:58;29.98;;;9.38;;
68247;SDS011;55064;49.636;12.164;2023-03-01T09:59:06;20.50;;;8.15;;
68247;SDS011;55064;49.636;12.164;2023-03-01T10:01:56;19.10;;;7.77;;
68247;SDS011;55064;49.636;12.164;2023-03-01T10:09:33;26.05;;;10.82;;
68247;SDS011;55064;49.636;12.164;2023-03-01T10:12:04;28.42;;;11.77;;
68247;SDS011;55064;49.636;12.164;2023-03-01T10:14:36;24.87;;;9.13;;
68247;SDS011;55064;49.636;12.164;2023-03-01T10:17:10;22.80;;;9.13;;
68247;SDS011;55064;49.636;12.164;2023-03-01T10:19:49;29.40;;;10.65;;
68247;SDS011;55064;49.636;12.164;2023-03-01T10:24:46;22.27;;;8.93;;
68247;SDS011;55064;49.636;12.164;2023-03-01T10:27:19;25.95;;;10.80;;
68247;SDS011;55064;49.636;12.164;2023-03-01T10:32:28;27.50;;;11.10;;
68247;SDS011;55064;49.636;12.164;2023-03-01T10:34:54;21.40;;;8.60;;
68247;SDS011;55064;49.636;12.164;2023-03-01T10:37:22;21.13;;;8.50;;
68247;SDS011;55064;49.636;12.164;2023-03-01T10:42:35;22.17;;;7.75;;
68247;SDS011;55064;49.636;12.164;2023-03-01T10:48:04;19.80;;;8.02;;
68247;SDS011;55064;49.636;12.164;2023-03-01T10:50:38;20.40;;;9.30;;
68247;SDS011;55064;49.636;12.164;2023-03-01T10:53:10;18.48;;;7.10;;
68247;SDS011;55064;49.636;12.164;2023-03-01T10:56:01;24.05;;;9.52;;
68247;SDS011;55064;49.636;12.164;2023-03-01T10:58:30;23.50;;;9.67;;
68247;SDS011;55064;49.636;12.164;2023-03-01T11:03:41;22.58;;;9.50;;
68247;SDS011;55064;49.636;12.164;2023-03-01T11:08:39;21.57;;;9.23;;
68247;SDS011;55064;49.636;12.164;2023-03-01T11:13:47;29.90;;;9.80;;
68247;SDS011;55064;49.636;12.164;2023-03-01T11:16:17;20.52;;;8.15;;
68247;SDS011;55064;49.636;12.164;2023-03-01T11:18:58;23.27;;;9.18;;
68247;SDS011;55064;49.636;12.164;2023-03-01T11:21:25;21.75;;;9.10;;
68247;SDS011;55064;49.636;12.164;2023-03-01T11:23:57;22.02;;;9.75;;
68247;SDS011;55064;49.636;12.164;2023-03-01T11:26:28;22.03;;;9.00;;
68247;SDS011;55064;49.636;12.164;2023-03-01T11:28:57;19.02;;;8.13;;
68247;SDS011;55064;49.636;12.164;2023-03-01T11:31:28;25.30;;;10.63;;
68247;SDS011;55064;49.636;12.164;2023-03-01T11:34:07;26.15;;;10.23;;
68247;SDS011;55064;49.636;12.164;2023-03-01T11:36:43;19.05;;;8.80;;
68247;SDS011;55064;49.636;12.164;2023-03-01T11:39:22;19.47;;;8.03;;
68247;SDS011;55064;49.636;12.164;2023-03-01T11:42:17;18.42;;;7.80;;
68247;SDS011;55064;49.636;12.164;2023-03-01T11:44:47;21.52;;;9.35;;
68247;SDS011;55064;49.636;12.164;2023-03-01T11:47:24;20.42;;;8.23;;
68247;SDS011;55064;49.636;12.164;2023-03-01T11:50:26;23.48;;;8.90;;
68247;SDS011;55064;49.636;12.164;2023-03-01T11:59:18;22.15;;;9.70;;
68247;SDS011;55064;49.636;12.164;2023-03-01T12:02:08;19.77;;;7.38;;
68247;SDS011;55064;49.636;12.164;2023-03-01T12:29:38;24.13;;;10.48;;
68247;SDS011;55064;49.636;12.164;2023-03-01T12:37:55;23.90;;;9.57;;
68247;SDS011;55064;49.636;12.164;2023-03-01T12:51:03;18.98;;;8.32;;
68247;SDS011;55064;49.636;12.164;2023-03-01T12:53:39;22.10;;;8.93;;
68247;SDS011;55064;49.636;12.164;2023-03-01T12:56:11;18.20;;;7.15;;
68247;SDS011;55064;49.636;12.164;2023-03-01T13:12:02;21.48;;;9.07;;
68247;SDS011;55064;49.636;12.164;2023-03-01T13:16:56;17.10;;;7.78;;
68247;SDS011;55064;49.636;12.164;2023-03-01T13:19:22;18.60;;;8.17;;
68247;SDS011;55064;49.636;12.164;2023-03-01T13:21:51;20.60;;;8.73;;
68247;SDS011;55064;49.636;12.164;2023-03-01T13:24:29;20.48;;;8.55;;
68247;SDS011;55064;49.636;12.164;2023-03-01T13:29:52;21.00;;;9.10;;
68247;SDS011;55064;49.636;12.164;2023-03-01T13:32:27;21.00;;;8.85;;
68247;SDS011;55064;49.636;12.164;2023-03-01T13:35:40;19.27;;;8.10;;
68247;SDS011;55064;49.636;12.164;2023-03-01T13:37:52;18.63;;;8.25;;
68247;SDS011;55064;49.636;12.164;2023-03-01T13:40:58;20.88;;;8.60;;
68247;SDS011;55064;49.636;12.164;2023-03-01T13:43:32;21.53;;;8.30;;
68247;SDS011;55064;49.636;12.164;2023-03-01T13:46:00;23.52;;;9.38;;
68247;SDS011;55064;49.636;12.164;2023-03-01T13:48:33;19.27;;;7.93;;
68247;SDS011;55064;49.636;12.164;2023-03-01T13:51:01;21.60;;;9.33;;
68247;SDS011;55064;49.636;12.164;2023-03-01T13:53:29;19.02;;;7.80;;
68247;SDS011;55064;49.636;12.164;2023-03-01T13:56:06;18.77;;;8.68;;
68247;SDS011;55064;49.636;12.164;2023-03-01T13:59:21;25.85;;;9.45;;
68247;SDS011;55064;49.636;12.164;2023-03-01T14:01:30;21.17;;;7.60;;
68247;SDS011;55064;49.636;12.164;2023-03-01T14:04:01;19.73;;;8.30;;
68247;SDS011;55064;49.636;12.164;2023-03-01T14:06:30;22.23;;;8.98;;
68247;SDS011;55064;49.636;12.164;2023-03-01T14:19:47;19.70;;;9.10;;
68247;SDS011;55064;49.636;12.164;2023-03-01T14:22:23;21.73;;;9.13;;
68247;SDS011;55064;49.636;12.164;2023-03-01T14:24:53;17.63;;;7.55;;
68247;SDS011;55064;49.636;12.164;2023-03-01T14:27:23;19.23;;;8.27;;
68247;SDS011;55064;49.636;12.164;2023-03-01T14:29:57;23.40;;;10.30;;
68247;SDS011;55064;49.636;12.164;2023-03-01T14:32:36;16.92;;;7.00;;
68247;SDS011;55064;49.636;12.164;2023-03-01T14:35:02;20.27;;;8.80;;
68247;SDS011;55064;49.636;12.164;2023-03-01T14:37:31;20.63;;;8.50;;
68247;SDS011;55064;49.636;12.164;2023-03-01T14:40:02;20.05;;;8.45;;
68247;SDS011;55064;49.636;12.164;2023-03-01T14:42:34;21.42;;;9.30;;
68247;SDS011;55064;49.636;12.164;2023-03-01T14:45:02;21.75;;;8.80;;
68247;SDS011;55064;49.636;12.164;2023-03-01T14:47:31;20.73;;;8.37;;
68247;SDS011;55064;49.636;12.164;2023-03-01T14:49:59;21.20;;;8.70;;
68247;SDS011;55064;49.636;12.164;2023-03-01T14:52:36;18.95;;;8.07;;
68247;SDS011;55064;49.636;12.164;2023-03-01T14:55:05;26.20;;;8.57;;
68247;SDS011;55064;49.636;12.164;2023-03-01T14:57:38;19.67;;;7.90;;
68247;SDS011;55064;49.636;12.164;2023-03-01T15:00:10;23.13;;;9.30;;
68247;SDS011;55064;49.636;12.164;2023-03-01T15:02:44;24.38;;;10.02;;
68247;SDS011;55064;49.636;12.164;2023-03-01T15:05:13;18.20;;;8.32;;
68247;SDS011;55064;49.636;12.164;2023-03-01T15:07:40;17.42;;;7.00;;
68247;SDS011;55064;49.636;12.164;2023-03-01T15:10:25;15.95;;;6.53;;
68247;SDS011;55064;49.636;12.164;2023-03-01T15:12:55;18.73;;;8.13;;
68247;SDS011;55064;49.636;12.164;2023-03-01T15:17:54;18.98;;;8.05;;
68247;SDS011;55064;49.636;12.164;2023-03-01T15:20:24;19.65;;;8.90;;
68247;SDS011;55064;49.636;12.164;2023-03-01T15:22:55;19.27;;;8.68;;
68247;SDS011;55064;49.636;12.164;2023-03-01T15:25:23;17.27;;;7.37;;
68247;SDS011;55064;49.636;12.164;2023-03-01T15:27:54;23.13;;;10.45;;
68247;SDS011;55064;49.636;12.164;2023-03-01T15:30:25;22.75;;;8.90;;
68247;SDS011;55064;49.636;12.164;2023-03-01T15:35:45;21.23;;;8.55;;
68247;SDS011;55064;49.636;12.164;2023-03-01T15:41:47;23.27;;;9.90;;
68247;SDS011;55064;49.636;12.164;2023-03-01T15:44:28;25.17;;;9.30;;
68247;SDS011;55064;49.636;12.164;2023-03-01T15:46:57;23.35;;;8.57;;
68247;SDS011;55064;49.636;12.164;2023-03-01T15:49:41;23.40;;;9.13;;
68247;SDS011;55064;49.636;12.164;2023-03-01T15:52:20;20.97;;;8.40;;
68247;SDS011;55064;49.636;12.164;2023-03-01T15:55:03;25.70;;;9.77;;
68247;SDS011;55064;49.636;12.164;2023-03-01T15:57:45;25.08;;;10.48;;
68247;SDS011;55064;49.636;12.164;2023-03-01T16:00:14;20.65;;;8.43;;
68247;SDS011;55064;49.636;12.164;2023-03-01T16:02:42;25.27;;;10.48;;
68247;SDS011;55064;49.636;12.164;2023-03-01T16:05:30;20.37;;;8.37;;
68247;SDS011;55064;49.636;12.164;2023-03-01T16:07:56;24.73;;;9.98;;
68247;SDS011;55064;49.636;12.164;2023-03-01T16:10:22;25.42;;;9.43;;
68247;SDS011;55064;49.636;12.164;2023-03-01T16:12:49;26.35;;;11.18;;
68247;SDS011;55064;49.636;12.164;2023-03-01T16:15:19;24.97;;;9.87;;
68247;SDS011;55064;49.636;12.164;2023-03-01T16:17:53;29.02;;;12.38;;
68247;SDS011;55064;49.636;12.164;2023-03-01T16:20:20;26.13;;;10.38;;
68247;SDS011;55064;49.636;12.164;2023-03-01T16:22:46;23.75;;;10.13;;
68247;SDS011;55064;49.636;12.164;2023-03-01T16:25:14;26.75;;;11.38;;
68247;SDS011;55064;49.636;12.164;2023-03-01T16:27:42;27.97;;;11.07;;
68247;SDS011;55064;49.636;12.164;2023-03-01T16:30:13;27.75;;;10.80;;
68247;SDS011;55064;49.636;12.164;2023-03-01T16:32:40;33.47;;;11.00;;
68247;SDS011;55064;49.636;12.164;2023-03-01T16:35:12;24.92;;;11.18;;
68247;SDS011;55064;49.636;12.164;2023-03-01T16:37:40;22.85;;;10.85;;
68247;SDS011;55064;49.636;12.164;2023-03-01T16:40:06;24.07;;;10.33;;
68247;SDS011;55064;49.636;12.164;2023-03-01T16:42:47;20.58;;;8.70;;
68247;SDS011;55064;49.636;12.164;2023-03-01T16:45:15;25.90;;;10.35;;
68247;SDS011;55064;49.636;12.164;2023-03-01T16:47:42;25.70;;;10.18;;